Time;durP1;ratioP1;P1;durP2;ratioP2;P2;SDS_P1;SDS_P2;PMS_P1;PMS_P2;Temp;Humidity;BMP_temperature;BMP_pressure;BME280_temperature;BME280_humidity;BME280_pressure;Samples;Min_cycle;Max_cycle;Signal;HPM_P1;HPM_P2
2021/04/09 05:56:37;;;;;;;9.23;4.38;;;;;;;;;;10496330;27;20383;-88
2021/04/09 06:07:20;;;;;;;6.15;4.97;;;;;;;;;;10521052;22;20045;-86
2021/04/09 07:08:46;;;;;;;5.78;4.35;;;;;;;;;;10475846;28;20064;-84
2021/04/09 07:13:50;;;;;;;5.85;3.75;;;;;;;;;;10473970;28;20475;-86
2021/04/09 07:18:52;;;;;;;5.63;3.35;;;;;;;;;;10474947;28;20195;-86
2021/04/09 07:24:12;;;;;;;8.57;3.72;;;;;;;;;;10496697;28;20044;-83
2021/04/09 07:29:32;;;;;;;10.23;6.43;;;;;;;;;;10509457;28;20025;-85
2021/04/09 07:34:52;;;;;;;7.93;7.05;;;;;;;;;;10489746;28;20367;-85
2021/04/09 07:39:54;;;;;;;7.72;5.88;;;;;;;;;;10481194;28;20025;-86
2021/04/09 07:45:00;;;;;;;7.13;4.32;;;;;;;;;;10484848;28;20029;-84
2021/04/09 07:50:02;;;;;;;7.07;4.10;;;;;;;;;;10473426;28;20025;-85
2021/04/09 07:55:11;;;;;;;5.45;3.40;;;;;;;;;;10473850;28;20031;-82
2021/04/09 08:00:21;;;;;;;6.63;4.57;;;;;;;;;;10471735;28;20025;-84
2021/04/09 08:05:24;;;;;;;4.72;3.90;;;;;;;;;;10475390;28;20592;-85
2021/04/09 08:10:42;;;;;;;5.75;3.63;;;;;;;;;;10477819;28;20091;-85
2021/04/09 08:15:43;;;;;;;5.32;3.65;;;;;;;;;;10455938;28;20029;-86
2021/04/09 08:26:51;;;;;;;5.85;3.83;;;;;;;;;;10479353;28;20090;-87
2021/04/09 08:31:54;;;;;;;4.80;3.75;;;;;;;;;;10482852;28;20126;-85
2021/04/09 08:36:55;;;;;;;4.28;2.92;;;;;;;;;;10489346;28;20044;-86
2021/04/09 08:42:01;;;;;;;7.18;3.50;;;;;;;;;;10481363;28;20050;-86
2021/04/09 08:47:04;;;;;;;7.53;3.65;;;;;;;;;;10493245;28;20028;-85
2021/04/09 08:52:06;;;;;;;5.93;3.40;;;;;;;;;;10501669;28;20055;-84
2021/04/09 08:57:25;;;;;;;5.88;4.07;;;;;;;;;;10497994;28;20064;-85
2021/04/09 09:02:51;;;;;;;5.53;3.35;;;;;;;;;;10479327;28;20550;-86
2021/04/09 09:07:56;;;;;;;5.82;3.47;;;;;;;;;;10474736;28;20037;-86
2021/04/09 09:13:03;;;;;;;5.25;3.20;;;;;;;;;;10475727;28;20017;-86
2021/04/09 09:18:24;;;;;;;4.75;3.03;;;;;;;;;;10475237;28;20021;-85
2021/04/09 09:23:25;;;;;;;6.32;3.42;;;;;;;;;;10476481;28;20091;-84
2021/04/09 09:28:30;;;;;;;4.40;2.95;;;;;;;;;;10475983;28;20025;-86
2021/04/09 09:33:31;;;;;;;5.25;3.58;;;;;;;;;;10476283;28;20397;-84
2021/04/09 09:38:50;;;;;;;5.55;3.85;;;;;;;;;;10475682;28;20021;-86
2021/04/09 09:43:51;;;;;;;4.20;3.33;;;;;;;;;;10475631;28;20062;-85
2021/04/09 09:49:08;;;;;;;5.43;3.03;;;;;;;;;;10474764;28;20466;-85
2021/04/09 09:54:09;;;;;;;4.22;2.80;;;;;;;;;;10475245;28;20426;-85
2021/04/09 09:59:10;;;;;;;5.40;4.18;;;;;;;;;;10476359;28;20029;-87
2021/04/09 10:04:14;;;;;;;4.72;2.85;;;;;;;;;;10479017;28;20171;-85
2021/04/09 10:09:22;;;;;;;4.30;3.25;;;;;;;;;;10471623;28;20097;-84
2021/04/09 10:14:27;;;;;;;4.65;3.63;;;;;;;;;;10482714;28;20061;-84
2021/04/09 10:19:28;;;;;;;4.07;3.05;;;;;;;;;;10486414;28;20025;-86
2021/04/09 10:24:37;;;;;;;5.32;3.35;;;;;;;;;;10475393;28;20415;-85
2021/04/09 10:29:38;;;;;;;4.80;3.40;;;;;;;;;;10474207;28;20125;-85
2021/04/09 10:34:39;;;;;;;5.40;3.10;;;;;;;;;;10475543;28;20163;-85
2021/04/09 10:39:40;;;;;;;5.05;3.40;;;;;;;;;;10476200;28;20521;-86
2021/04/09 10:44:41;;;;;;;6.07;3.80;;;;;;;;;;10480984;28;20394;-87
2021/04/09 10:49:43;;;;;;;5.07;2.60;;;;;;;;;;10486667;28;20490;-86
2021/04/09 10:54:51;;;;;;;4.90;3.03;;;;;;;;;;10484686;28;20032;-86
2021/04/09 10:59:53;;;;;;;7.88;3.70;;;;;;;;;;10486134;28;20066;-86
2021/04/09 11:04:55;;;;;;;7.38;3.67;;;;;;;;;;10481042;28;20055;-87
2021/04/09 11:09:56;;;;;;;4.38;3.17;;;;;;;;;;10482451;28;20028;-87
2021/04/09 11:15:03;;;;;;;4.10;3.15;;;;;;;;;;10500746;28;20029;-85
2021/04/09 11:20:21;;;;;;;4.30;3.20;;;;;;;;;;10508402;28;20021;-85
2021/04/09 11:25:29;;;;;;;4.03;2.70;;;;;;;;;;10488641;28;20105;-86
2021/04/09 11:30:35;;;;;;;4.95;2.58;;;;;;;;;;10479591;28;20040;-85
2021/04/09 11:35:38;;;;;;;4.47;3.05;;;;;;;;;;10478505;28;20033;-85
2021/04/09 11:40:41;;;;;;;4.60;3.00;;;;;;;;;;10480376;28;20052;-86
2021/04/09 11:45:43;;;;;;;5.60;2.75;;;;;;;;;;10480531;28;20036;-86
2021/04/09 11:50:44;;;;;;;4.20;2.97;;;;;;;;;;10478768;28;20033;-85
2021/04/09 11:55:47;;;;;;;7.90;2.60;;;;;;;;;;10481094;28;20063;-85
2021/04/09 12:00:54;;;;;;;7.05;4.68;;;;;;;;;;10481119;28;20039;-86
2021/04/09 12:06:09;;;;;;;3.95;3.17;;;;;;;;;;10478644;28;20029;-84
2021/04/09 12:11:10;;;;;;;4.88;3.22;;;;;;;;;;10476978;28;20035;-84
2021/04/09 12:16:11;;;;;;;3.97;2.90;;;;;;;;;;10475568;28;20047;-84
2021/04/09 12:21:12;;;;;;;5.57;4.53;;;;;;;;;;10474945;28;20036;-84
2021/04/09 12:26:13;;;;;;;3.53;2.70;;;;;;;;;;10473298;28;20121;-85
2021/04/09 12:31:14;;;;;;;5.07;2.97;;;;;;;;;;10474244;28;20040;-82
2021/04/09 12:36:15;;;;;;;4.47;3.00;;;;;;;;;;10474343;28;20032;-84
2021/04/09 12:41:16;;;;;;;3.83;2.60;;;;;;;;;;10473967;28;20028;-85
2021/04/09 12:46:17;;;;;;;4.00;2.70;;;;;;;;;;10447258;28;20040;-85
2021/04/09 12:51:19;;;;;;;4.32;2.75;;;;;;;;;;10435604;28;20495;-84
2021/04/09 12:56:26;;;;;;;8.80;5.90;;;;;;;;;;10418943;28;20072;-85
2021/04/09 13:01:31;;;;;;;5.28;4.28;;;;;;;;;;10432467;28;20021;-84
2021/04/09 13:06:32;;;;;;;5.63;3.75;;;;;;;;;;10434207;28;20029;-84
2021/04/09 13:11:34;;;;;;;4.75;3.92;;;;;;;;;;10415056;28;20033;-84
2021/04/09 13:16:35;;;;;;;6.55;4.57;;;;;;;;;;10431884;28;20033;-83
2021/04/09 13:21:36;;;;;;;5.80;5.20;;;;;;;;;;10430924;28;20035;-83
2021/04/09 13:26:37;;;;;;;6.13;4.13;;;;;;;;;;10440180;28;20033;-84
2021/04/09 13:31:38;;;;;;;4.00;2.88;;;;;;;;;;10437448;28;20033;-85
2021/04/09 13:36:39;;;;;;;6.93;4.88;;;;;;;;;;10435248;28;20033;-84
2021/04/09 13:41:40;;;;;;;5.05;2.83;;;;;;;;;;10444741;28;20029;-85
2021/04/09 13:46:41;;;;;;;4.68;2.40;;;;;;;;;;10448277;28;20028;-84
2021/04/09 13:51:42;;;;;;;4.38;2.70;;;;;;;;;;10438143;28;20072;-84
2021/04/09 13:56:43;;;;;;;3.35;2.25;;;;;;;;;;10432021;28;20034;-82
2021/04/09 14:01:44;;;;;;;4.63;2.20;;;;;;;;;;10435430;28;20021;-84
2021/04/09 14:06:45;;;;;;;4.95;4.45;;;;;;;;;;10436230;28;20084;-83
2021/04/09 14:11:46;;;;;;;4.35;2.25;;;;;;;;;;10433804;28;20097;-83
2021/04/09 14:16:47;;;;;;;5.20;2.40;;;;;;;;;;10438329;28;20052;-83
2021/04/09 14:21:48;;;;;;;3.45;2.38;;;;;;;;;;10472588;28;20029;-85
2021/04/09 14:26:52;;;;;;;4.63;3.00;;;;;;;;;;10480831;28;20498;-85
2021/04/09 14:31:53;;;;;;;4.85;2.60;;;;;;;;;;10480636;28;20036;-84
2021/04/09 14:36:54;;;;;;;4.05;2.58;;;;;;;;;;10483671;28;20029;-84
2021/04/09 14:41:58;;;;;;;4.95;2.85;;;;;;;;;;10479666;28;20025;-83
2021/04/09 14:47:03;;;;;;;5.90;2.95;;;;;;;;;;10481154;28;20025;-85
2021/04/09 14:52:04;;;;;;;4.40;2.80;;;;;;;;;;10482572;28;20029;-84
2021/04/09 14:57:05;;;;;;;4.95;3.88;;;;;;;;;;10505809;28;20029;-83
2021/04/09 15:02:06;;;;;;;5.65;2.95;;;;;;;;;;10497230;28;20364;-82
2021/04/09 15:07:07;;;;;;;5.93;3.17;;;;;;;;;;10487779;28;20040;-83
2021/04/09 15:12:08;;;;;;;6.07;2.60;;;;;;;;;;10480988;28;20116;-84
2021/04/09 15:17:09;;;;;;;4.70;3.78;;;;;;;;;;10480878;28;20031;-84
2021/04/09 15:22:10;;;;;;;6.10;2.70;;;;;;;;;;10479438;28;20040;-83
2021/04/09 15:27:11;;;;;;;5.30;2.30;;;;;;;;;;10479733;28;20029;-86
2021/04/09 15:32:13;;;;;;;3.90;2.45;;;;;;;;;;10482172;28;20473;-84
2021/04/09 15:37:14;;;;;;;3.70;1.95;;;;;;;;;;10481857;28;20092;-87
2021/04/09 15:42:15;;;;;;;4.78;3.13;;;;;;;;;;10481240;28;20075;-84
2021/04/09 15:47:16;;;;;;;5.28;3.42;;;;;;;;;;10479200;28;20462;-84
2021/04/09 15:52:17;;;;;;;5.45;4.13;;;;;;;;;;10477379;28;20029;-83
2021/04/09 15:57:18;;;;;;;6.38;4.15;;;;;;;;;;10477205;28;20021;-84
2021/04/09 16:02:19;;;;;;;3.95;3.10;;;;;;;;;;10481693;28;20029;-84
2021/04/09 16:07:20;;;;;;;4.93;4.18;;;;;;;;;;10483747;28;20040;-83
2021/04/09 16:12:21;;;;;;;4.38;2.80;;;;;;;;;;10482970;28;20048;-84
2021/04/09 16:17:22;;;;;;;5.90;3.10;;;;;;;;;;10482015;28;20029;-85
2021/04/09 16:22:23;;;;;;;5.22;2.38;;;;;;;;;;10477120;28;20021;-81
2021/04/09 16:27:24;;;;;;;5.47;3.00;;;;;;;;;;10477436;28;20537;-82
2021/04/09 16:32:29;;;;;;;3.72;2.88;;;;;;;;;;10477119;28;20047;-85
2021/04/09 16:37:30;;;;;;;4.35;3.30;;;;;;;;;;10476546;28;20017;-85
2021/04/09 16:42:31;;;;;;;4.30;3.90;;;;;;;;;;10480267;28;20033;-86
2021/04/09 16:47:32;;;;;;;4.97;3.20;;;;;;;;;;10477068;28;20383;-84
2021/04/09 16:52:33;;;;;;;6.00;4.15;;;;;;;;;;10473559;28;20031;-84
2021/04/09 16:57:34;;;;;;;5.10;3.50;;;;;;;;;;10471572;28;20063;-85
2021/04/09 17:02:35;;;;;;;4.63;3.40;;;;;;;;;;10474587;28;20032;-85
2021/04/09 17:07:37;;;;;;;8.23;5.88;;;;;;;;;;10472708;28;20041;-84
2021/04/09 17:12:38;;;;;;;4.93;3.70;;;;;;;;;;10475987;28;20025;-84
2021/04/09 17:17:40;;;;;;;6.53;3.88;;;;;;;;;;10478379;28;20090;-86
2021/04/09 17:23:07;;;;;;;3.75;3.03;;;;;;;;;;10474912;28;20355;-84
2021/04/09 17:28:08;;;;;;;4.15;3.20;;;;;;;;;;10476994;28;20059;-85
2021/04/09 17:38:39;;;;;;;3.25;2.80;;;;;;;;;;10479263;28;20040;-85
2021/04/09 17:44:01;;;;;;;4.53;2.05;;;;;;;;;;10485933;28;20032;-85
2021/04/09 17:49:04;;;;;;;2.25;1.95;;;;;;;;;;10479373;28;20029;-84
2021/04/09 17:54:06;;;;;;;3.42;2.53;;;;;;;;;;10473841;28;20402;-85
2021/04/09 17:59:17;;;;;;;4.10;2.30;;;;;;;;;;10473951;28;20393;-85
2021/04/09 18:10:28;;;;;;;2.75;2.28;;;;;;;;;;10490722;28;20097;-85
2021/04/09 18:21:47;;;;;;;4.63;3.60;;;;;;;;;;10485021;28;20043;-85
2021/04/09 18:33:29;;;;;;;2.75;2.42;;;;;;;;;;10478962;28;20045;-85
2021/04/09 18:39:17;;;;;;;4.57;2.60;;;;;;;;;;10453346;28;20020;-85
2021/04/09 19:07:12;;;;;;;;;;;;;;;;;;10494805;28;20025;-84
2021/04/09 19:12:43;;;;;;;5.35;3.55;;;;;;;;;;10380636;28;19916;-84
2021/04/09 19:29:21;;;;;;;6.37;5.53;;;;;;;;;;10472713;28;20029;-85
2021/04/09 19:35:13;;;;;;;4.95;3.80;;;;;;;;;;10471142;28;20096;-85
2021/04/09 19:57:51;;;;;;;5.38;4.88;;;;;;;;;;10485197;28;20053;-85
2021/04/09 21:05:31;;;;;;;;;;;;;;;;;;10571935;28;20032;-84
2021/04/09 21:17:08;;;;;;;5.22;4.82;;;;;;;;;;10261607;28;20032;-85
2021/04/09 21:22:59;;;;;;;4.15;3.33;;;;;;;;;;10199652;29;20040;-84
2021/04/09 21:29:02;;;;;;;4.93;4.53;;;;;;;;;;10194980;29;20036;-86
2021/04/09 21:40:30;;;;;;;5.32;4.88;;;;;;;;;;10084061;29;20108;-85
2021/04/09 22:59:29;;;;;;;5.47;4.97;;;;;;;;;;10403761;28;20065;-86
2021/04/09 23:27:44;;;;;;;4.97;4.47;;;;;;;;;;10527672;28;20052;-85
2021/04/09 23:33:36;;;;;;;5.82;5.32;;;;;;;;;;10442392;28;20042;-86
2021/04/09 23:50:33;;;;;;;4.97;4.50;;;;;;;;;;10448415;28;20488;-86
